createdAt,value
2022-11-26T00:00:14.743Z,18.08
2022-11-26T00:02:44.372Z,19.73
2022-11-26T00:05:13.950Z,17.23
2022-11-26T00:07:42.476Z,18.23
2022-11-26T00:10:19.856Z,19.20
2022-11-26T00:12:48.251Z,18.70
2022-11-26T00:15:18.025Z,18.63
2022-11-26T00:17:47.592Z,18.40
2022-11-26T00:20:16.096Z,18.15
2022-11-26T00:22:45.401Z,16.20
2022-11-26T00:25:18.956Z,16.35
2022-11-26T00:27:47.085Z,17.35
2022-11-26T00:30:19.634Z,15.77
2022-11-26T00:32:49.316Z,16.55
2022-11-26T00:35:17.653Z,16.20
2022-11-26T00:37:47.373Z,16.13
2022-11-26T00:40:20.814Z,16.50
2022-11-26T00:42:49.208Z,14.80
2022-11-26T00:45:18.985Z,16.27
2022-11-26T00:47:48.688Z,17.48
2022-11-26T00:50:18.952Z,15.50
2022-11-26T00:52:50.945Z,15.95
2022-11-26T00:55:28.817Z,15.60
2022-11-26T00:57:57.231Z,16.20
2022-11-26T01:00:26.484Z,15.73
2022-11-26T01:02:56.336Z,15.80
2022-11-26T01:05:26.057Z,14.30
2022-11-26T01:07:54.609Z,14.50
2022-11-26T01:10:25.292Z,14.80
2022-11-26T01:12:53.749Z,13.95
2022-11-26T01:15:23.908Z,14.82
2022-11-26T01:17:52.735Z,14.18
2022-11-26T01:20:25.624Z,14.43
2022-11-26T01:22:54.477Z,15.07
2022-11-26T01:25:22.729Z,13.10
2022-11-26T01:27:51.000Z,14.20
2022-11-26T01:30:21.302Z,14.18
2022-11-26T01:32:49.873Z,12.98
2022-11-26T01:35:18.443Z,14.18
2022-11-26T01:37:48.104Z,14.15
2022-11-26T01:40:34.210Z,13.82
2022-11-26T01:43:05.633Z,12.80
2022-11-26T01:45:34.031Z,13.55
2022-11-26T01:48:02.342Z,12.93
2022-11-26T01:51:04.768Z,13.18
2022-11-26T01:53:38.962Z,13.15
2022-11-26T01:56:11.942Z,12.70
2022-11-26T01:58:41.856Z,12.27
2022-11-26T02:01:10.084Z,12.95
2022-11-26T02:03:41.193Z,13.95
2022-11-26T02:06:12.049Z,12.57
2022-11-26T02:08:41.548Z,12.10
2022-11-26T02:11:17.640Z,13.25
2022-11-26T02:13:47.491Z,12.93
2022-11-26T02:16:20.634Z,11.73
2022-11-26T02:18:54.236Z,13.85
2022-11-26T02:21:23.869Z,10.75
2022-11-26T02:24:11.444Z,11.88
2022-11-26T02:27:11.564Z,11.65
2022-11-26T02:29:50.089Z,11.88
2022-11-26T02:32:19.315Z,12.00
2022-11-26T02:34:49.224Z,11.38
2022-11-26T02:37:19.853Z,11.05
2022-11-26T02:39:48.163Z,12.70
2022-11-26T02:42:25.236Z,11.35
2022-11-26T02:44:55.202Z,11.30
2022-11-26T02:47:23.443Z,10.55
2022-11-26T02:49:51.721Z,11.15
2022-11-26T02:52:19.957Z,10.90
2022-11-26T02:54:48.233Z,10.45
2022-11-26T02:57:16.953Z,11.05
2022-11-26T02:59:45.301Z,11.27
2022-11-26T03:02:16.200Z,11.35
2022-11-26T03:04:47.017Z,10.70
2022-11-26T03:07:15.520Z,12.55
2022-11-26T03:09:49.863Z,11.13
2022-11-26T03:12:18.204Z,10.35
2022-11-26T03:14:46.722Z,9.52
2022-11-26T03:17:16.392Z,10.15
2022-11-26T03:19:44.948Z,9.40
2022-11-26T03:22:13.171Z,10.32
2022-11-26T03:24:41.632Z,10.40
2022-11-26T03:27:09.829Z,9.98
2022-11-26T03:29:38.220Z,9.13
2022-11-26T03:32:07.223Z,10.00
2022-11-26T03:34:37.267Z,10.20
2022-11-26T03:37:05.721Z,9.95
2022-11-26T03:39:34.097Z,9.25
2022-11-26T03:42:02.383Z,9.63
2022-11-26T03:44:30.590Z,8.95
2022-11-26T03:46:59.037Z,9.57
2022-11-26T03:49:27.401Z,9.77
2022-11-26T03:51:57.329Z,9.77
2022-11-26T03:54:25.688Z,10.00
2022-11-26T03:56:53.900Z,11.02
2022-11-26T03:59:22.238Z,8.75
2022-11-26T04:01:50.771Z,8.98
2022-11-26T04:04:19.072Z,8.50
2022-11-26T04:06:47.398Z,8.43
2022-11-26T04:09:17.153Z,8.65
2022-11-26T04:11:48.409Z,9.85
2022-11-26T04:14:16.696Z,8.75
2022-11-26T04:16:45.015Z,9.00
2022-11-26T04:19:13.302Z,8.00
2022-11-26T04:21:41.495Z,9.57
2022-11-26T04:24:09.965Z,8.43
2022-11-26T04:26:39.584Z,8.70
2022-11-26T04:29:07.916Z,9.52
2022-11-26T04:31:36.385Z,8.18
2022-11-26T04:34:04.722Z,8.52
2022-11-26T04:36:32.936Z,7.88
2022-11-26T04:39:01.447Z,8.55
2022-11-26T04:41:29.641Z,9.52
2022-11-26T04:43:59.448Z,7.38
2022-11-26T04:46:28.037Z,7.75
2022-11-26T04:48:56.250Z,8.43
2022-11-26T04:51:24.552Z,8.18
2022-11-26T04:53:55.767Z,7.97
2022-11-26T04:56:24.635Z,7.90
2022-11-26T04:58:52.932Z,7.82
2022-11-26T05:01:22.897Z,7.88
2022-11-26T05:03:53.036Z,8.15
2022-11-26T05:06:21.588Z,7.22
2022-11-26T05:08:49.895Z,8.70
2022-11-26T05:11:18.079Z,6.88
2022-11-26T05:13:46.323Z,7.13
2022-11-26T05:16:14.698Z,7.82
2022-11-26T05:18:44.667Z,7.57
2022-11-26T05:21:13.292Z,7.65
2022-11-26T05:23:41.572Z,7.60
2022-11-26T05:26:09.785Z,7.88
2022-11-26T05:28:38.084Z,8.18
2022-11-26T05:31:06.805Z,7.45
2022-11-26T05:33:35.114Z,7.05
2022-11-26T05:36:05.168Z,7.70
2022-11-26T05:38:33.458Z,6.20
2022-11-26T05:41:01.694Z,7.28
2022-11-26T05:43:29.920Z,18.50
2022-11-26T05:45:58.238Z,25.50
2022-11-26T05:48:26.463Z,36.47
2022-11-26T05:50:58.838Z,30.50
2022-11-26T05:53:28.756Z,39.90
2022-11-26T05:55:57.032Z,30.17
2022-11-26T05:58:25.299Z,42.08
2022-11-26T06:00:53.598Z,37.53
2022-11-26T06:03:21.955Z,38.33
2022-11-26T06:05:50.619Z,40.55
2022-11-26T06:08:18.865Z,47.58
2022-11-26T06:10:48.668Z,48.53
2022-11-26T06:13:17.419Z,66.68
2022-11-26T06:15:45.649Z,52.90
2022-11-26T06:18:13.924Z,48.80
2022-11-26T06:20:42.194Z,48.38
2022-11-26T06:23:10.345Z,55.72
2022-11-26T06:25:40.615Z,55.10
2022-11-26T06:28:10.147Z,51.22
2022-11-26T06:30:38.373Z,44.83
2022-11-26T06:33:06.774Z,45.20
2022-11-26T06:35:35.116Z,43.78
2022-11-26T06:38:03.190Z,44.92
2022-11-26T06:40:31.421Z,46.22
2022-11-26T06:42:59.497Z,43.17
2022-11-26T06:45:29.066Z,44.17
2022-11-26T06:47:57.217Z,41.65
2022-11-26T06:50:25.672Z,39.85
2022-11-26T06:52:53.872Z,39.35
2022-11-26T06:55:22.200Z,44.78
2022-11-26T06:57:51.144Z,40.13
2022-11-26T07:00:19.904Z,38.25
2022-11-26T07:02:49.407Z,34.58
2022-11-26T07:05:17.596Z,39.15
2022-11-26T07:07:45.855Z,35.17
2022-11-26T07:10:14.168Z,32.95
2022-11-26T07:12:42.243Z,36.22
2022-11-26T07:15:12.201Z,35.50
2022-11-26T07:17:40.369Z,34.05
2022-11-26T07:20:10.585Z,31.35
2022-11-26T07:22:38.868Z,33.05
2022-11-26T07:25:12.389Z,32.60
2022-11-26T07:27:41.125Z,31.55
2022-11-26T07:30:10.455Z,35.08
2022-11-26T07:32:38.633Z,31.77
2022-11-26T07:35:07.676Z,31.80
2022-11-26T07:37:37.489Z,32.97
2022-11-26T07:40:06.735Z,30.73
2022-11-26T07:42:34.853Z,29.02
2022-11-26T07:45:03.882Z,29.98
2022-11-26T07:47:31.975Z,28.90
2022-11-26T07:50:00.355Z,29.23
2022-11-26T07:52:28.468Z,25.55
2022-11-26T07:54:57.974Z,30.20
2022-11-26T07:57:26.090Z,26.95
2022-11-26T07:59:54.252Z,28.20
2022-11-26T08:02:22.380Z,27.15
2022-11-26T08:04:50.664Z,27.70
2022-11-26T08:07:24.636Z,28.98
2022-11-26T08:09:57.182Z,27.52
2022-11-26T08:12:25.313Z,25.80
2022-11-26T08:14:53.478Z,24.67
2022-11-26T08:17:21.548Z,27.25
2022-11-26T08:19:49.674Z,25.48
2022-11-26T08:22:17.806Z,24.02
2022-11-26T08:24:46.069Z,23.08
2022-11-26T08:27:15.565Z,24.13
2022-11-26T08:29:43.784Z,23.00
2022-11-26T08:32:11.884Z,24.65
2022-11-26T08:34:40.341Z,22.10
2022-11-26T08:37:08.612Z,21.98
2022-11-26T08:39:36.770Z,21.95
2022-11-26T08:42:04.976Z,23.08
2022-11-26T08:44:34.546Z,22.10
2022-11-26T08:47:02.651Z,20.95
2022-11-26T08:49:30.836Z,20.42
2022-11-26T08:51:58.936Z,21.30
2022-11-26T08:54:27.159Z,19.55
2022-11-26T08:56:55.649Z,21.33
2022-11-26T08:59:25.417Z,20.13
2022-11-26T09:01:54.994Z,19.13
2022-11-26T09:04:23.251Z,19.23
2022-11-26T09:06:51.369Z,18.25
2022-11-26T09:09:19.518Z,19.42
2022-11-26T09:11:49.141Z,19.77
2022-11-26T09:14:18.799Z,18.45
2022-11-26T09:16:47.248Z,18.05
2022-11-26T09:19:17.109Z,19.95
2022-11-26T09:21:45.319Z,17.50
2022-11-26T09:24:13.710Z,17.58
2022-11-26T09:26:41.895Z,16.05
2022-11-26T09:29:11.400Z,15.82
2022-11-26T09:31:55.072Z,17.77
2022-11-26T09:34:29.019Z,16.50
2022-11-26T09:36:57.091Z,19.02
2022-11-26T09:39:25.269Z,16.73
2022-11-26T09:41:55.608Z,17.15
2022-11-26T09:44:29.965Z,16.55
2022-11-26T09:47:13.686Z,16.98
2022-11-26T09:49:51.525Z,17.40
2022-11-26T09:52:24.150Z,15.80
2022-11-26T09:55:03.048Z,15.55
2022-11-26T09:57:34.750Z,15.10
2022-11-26T10:00:02.897Z,14.88
2022-11-26T10:02:33.127Z,16.95
2022-11-26T10:05:02.673Z,14.75
2022-11-26T10:07:38.982Z,14.52
2022-11-26T10:10:09.745Z,13.80
2022-11-26T10:13:10.781Z,13.90
2022-11-26T10:15:38.267Z,12.15
2022-11-26T10:18:12.716Z,13.38
2022-11-26T10:20:49.048Z,12.70
2022-11-26T10:23:20.224Z,12.98
2022-11-26T10:25:50.024Z,13.38
2022-11-26T10:28:22.213Z,13.98
2022-11-26T10:30:54.099Z,12.90
2022-11-26T10:33:22.415Z,12.45
2022-11-26T10:35:52.061Z,13.63
2022-11-26T10:38:20.200Z,12.75
2022-11-26T10:40:48.329Z,11.00
2022-11-26T10:43:19.934Z,11.18
2022-11-26T10:45:48.972Z,13.02
2022-11-26T10:48:21.244Z,12.50
2022-11-26T10:51:04.863Z,13.30
2022-11-26T10:53:36.161Z,13.23
2022-11-26T10:56:05.716Z,12.57
2022-11-26T10:58:38.647Z,12.10
2022-11-26T11:01:07.408Z,12.82
2022-11-26T11:04:07.334Z,11.98
2022-11-26T11:06:44.245Z,13.25
2022-11-26T11:09:25.707Z,12.00
2022-11-26T11:12:18.928Z,12.63
2022-11-26T11:14:47.813Z,13.38
2022-11-26T11:17:35.463Z,12.25
2022-11-26T11:20:22.146Z,10.10
2022-11-26T11:22:58.154Z,11.32
2022-11-26T11:25:27.200Z,13.48
2022-11-26T11:27:55.462Z,10.43
2022-11-26T11:30:25.996Z,11.38
2022-11-26T11:32:56.453Z,10.68
2022-11-26T11:35:25.656Z,11.18
2022-11-26T11:37:56.054Z,10.80
2022-11-26T11:40:27.709Z,9.70
2022-11-26T11:42:57.165Z,10.98
2022-11-26T11:45:30.244Z,10.00
2022-11-26T11:47:58.869Z,10.43
2022-11-26T11:50:31.864Z,10.93
2022-11-26T11:53:22.694Z,10.70
2022-11-26T11:56:02.091Z,10.88
2022-11-26T11:58:45.733Z,9.52
2022-11-26T12:01:20.949Z,10.35
2022-11-26T12:04:22.302Z,8.50
2022-11-26T12:06:56.423Z,8.98
2022-11-26T12:09:27.589Z,9.85
2022-11-26T12:11:57.707Z,8.93
2022-11-26T12:14:27.517Z,9.18
2022-11-26T12:16:57.483Z,8.95
2022-11-26T12:19:29.931Z,7.78
2022-11-26T12:21:59.564Z,7.82
2022-11-26T12:24:33.356Z,7.75
2022-11-26T12:27:03.907Z,8.38
2022-11-26T12:29:36.240Z,8.50
2022-11-26T12:32:06.775Z,6.50
2022-11-26T12:34:35.853Z,8.00
2022-11-26T12:37:05.463Z,7.72
2022-11-26T12:39:39.573Z,7.05
2022-11-26T12:42:10.621Z,7.63
2022-11-26T12:44:39.618Z,6.93
2022-11-26T12:47:11.701Z,7.88
2022-11-26T12:49:44.073Z,8.73
2022-11-26T12:52:19.417Z,7.30
2022-11-26T12:54:52.609Z,7.82
2022-11-26T12:57:23.920Z,7.93
2022-11-26T12:59:54.865Z,7.60
2022-11-26T13:02:26.248Z,7.28
2022-11-26T13:04:54.916Z,6.70
2022-11-26T13:07:35.543Z,8.15
2022-11-26T13:10:22.165Z,7.57
2022-11-26T13:12:52.817Z,6.65
2022-11-26T13:15:24.553Z,7.13
2022-11-26T13:17:52.845Z,6.28
2022-11-26T13:20:34.857Z,7.25
2022-11-26T13:23:09.421Z,6.00
2022-11-26T13:25:56.144Z,7.43
2022-11-26T13:28:31.296Z,6.85
2022-11-26T13:31:07.618Z,6.15
2022-11-26T13:34:00.629Z,7.43
2022-11-26T13:37:01.101Z,6.63
2022-11-26T13:40:08.997Z,6.43
2022-11-26T13:42:55.474Z,6.03
2022-11-26T13:45:36.260Z,6.38
2022-11-26T13:48:06.535Z,6.57
2022-11-26T13:50:38.060Z,6.57
2022-11-26T13:53:07.806Z,6.05
2022-11-26T13:55:37.903Z,6.18
2022-11-26T13:58:08.609Z,6.47
2022-11-26T14:00:37.502Z,5.93
2022-11-26T14:03:06.279Z,6.28
2022-11-26T14:06:08.283Z,6.50
2022-11-26T14:08:37.850Z,5.60
2022-11-26T14:11:06.484Z,6.53
2022-11-26T14:13:36.235Z,6.28
2022-11-26T14:16:06.277Z,6.40
2022-11-26T14:19:00.913Z,5.60
2022-11-26T14:21:30.693Z,6.05
2022-11-26T14:24:00.565Z,6.50
2022-11-26T14:26:34.458Z,5.50
2022-11-26T14:29:12.066Z,6.35
2022-11-26T14:31:49.982Z,5.38
2022-11-26T14:34:20.705Z,6.22
2022-11-26T14:36:53.114Z,6.55
2022-11-26T14:39:21.345Z,5.22
2022-11-26T14:41:54.437Z,6.05
2022-11-26T14:44:25.453Z,6.05
2022-11-26T14:46:55.353Z,6.93
2022-11-26T14:49:32.039Z,6.40
2022-11-26T14:52:00.334Z,6.85
2022-11-26T14:54:30.775Z,5.38
2022-11-26T14:56:59.737Z,6.25
2022-11-26T14:59:30.634Z,7.95
2022-11-26T15:01:59.088Z,7.78
2022-11-26T15:04:28.145Z,10.75
2022-11-26T15:06:56.863Z,9.40
2022-11-26T15:09:25.934Z,9.75
2022-11-26T15:12:00.891Z,9.77
2022-11-26T15:14:35.804Z,10.07
2022-11-26T15:17:04.082Z,9.18
2022-11-26T15:19:33.981Z,13.82
2022-11-26T15:22:08.861Z,15.07
2022-11-26T15:24:37.843Z,12.40
2022-11-26T15:27:06.119Z,11.25
2022-11-26T15:29:37.382Z,13.10
2022-11-26T15:32:05.967Z,9.88
2022-11-26T15:34:34.055Z,12.07
2022-11-26T15:37:02.216Z,11.93
2022-11-26T15:39:30.983Z,10.63
2022-11-26T15:42:02.257Z,10.95
2022-11-26T15:44:30.592Z,10.27
2022-11-26T15:47:00.547Z,11.20
2022-11-26T15:49:30.475Z,10.13
2022-11-26T15:51:59.282Z,10.35
2022-11-26T15:54:43.322Z,10.07
2022-11-26T15:57:21.262Z,10.10
2022-11-26T15:59:50.217Z,9.32
2022-11-26T16:02:20.738Z,9.93
2022-11-26T16:04:50.533Z,9.35
2022-11-26T16:07:19.543Z,9.57
2022-11-26T16:09:48.185Z,10.23
2022-11-26T16:12:30.253Z,9.85
2022-11-26T16:15:12.215Z,8.88
2022-11-26T16:17:44.396Z,11.07
2022-11-26T16:20:17.450Z,12.05
2022-11-26T16:22:46.870Z,9.18
2022-11-26T16:25:21.804Z,8.55
2022-11-26T16:28:06.588Z,8.93
2022-11-26T16:30:35.029Z,9.98
2022-11-26T16:33:04.681Z,9.82
2022-11-26T16:35:48.117Z,9.23
2022-11-26T16:38:20.250Z,10.23
2022-11-26T16:40:48.692Z,9.63
2022-11-26T16:43:16.777Z,10.50
2022-11-26T16:45:44.959Z,10.68
2022-11-26T16:48:26.060Z,8.90
2022-11-26T16:50:54.835Z,9.80
2022-11-26T16:53:22.934Z,9.57
2022-11-26T16:55:51.152Z,8.70
2022-11-26T16:58:26.100Z,9.98
2022-11-26T17:00:54.419Z,9.13
2022-11-26T17:03:24.205Z,8.68
2022-11-26T17:05:53.901Z,10.98
2022-11-26T17:08:22.062Z,9.32
2022-11-26T17:10:51.010Z,7.78
2022-11-26T17:13:20.670Z,9.60
2022-11-26T17:15:49.214Z,10.10
2022-11-26T17:18:20.395Z,9.77
2022-11-26T17:20:50.045Z,13.10
2022-11-26T17:23:18.437Z,8.45
2022-11-26T17:25:47.361Z,8.77
2022-11-26T17:28:15.848Z,7.82
2022-11-26T17:30:44.636Z,8.45
2022-11-26T17:33:12.816Z,8.23
2022-11-26T17:35:40.913Z,9.73
2022-11-26T17:38:14.880Z,11.95
2022-11-26T17:40:43.359Z,9.48
2022-11-26T17:43:11.492Z,10.30
2022-11-26T17:45:39.888Z,13.98
2022-11-26T17:48:08.017Z,14.90
2022-11-26T17:50:37.404Z,13.45
2022-11-26T17:53:05.593Z,13.45
2022-11-26T17:55:35.085Z,13.00
2022-11-26T17:58:03.193Z,18.75
2022-11-26T18:00:31.413Z,13.77
2022-11-26T18:02:59.652Z,18.58
2022-11-26T18:05:28.333Z,15.48
2022-11-26T18:07:56.650Z,16.63
2022-11-26T18:10:24.900Z,14.70
2022-11-26T18:12:55.231Z,14.52
2022-11-26T18:15:24.244Z,16.58
2022-11-26T18:17:53.404Z,16.15
2022-11-26T18:20:23.982Z,17.63
2022-11-26T18:22:52.318Z,15.98
2022-11-26T18:25:20.460Z,20.55
2022-11-26T18:27:48.681Z,18.35
2022-11-26T18:30:18.686Z,18.90
2022-11-26T18:32:46.898Z,14.30
2022-11-26T18:35:15.086Z,15.35
2022-11-26T18:37:43.293Z,13.20
2022-11-26T18:40:13.636Z,18.25
2022-11-26T18:42:41.944Z,12.88
2022-11-26T18:45:11.500Z,15.20
2022-11-26T18:47:41.057Z,14.50
2022-11-26T18:50:09.992Z,16.00
2022-11-26T18:52:38.217Z,12.88
2022-11-26T18:55:08.311Z,13.65
2022-11-26T18:57:36.630Z,15.32
2022-11-26T19:00:06.078Z,16.77
2022-11-26T19:02:35.288Z,16.90
2022-11-26T19:05:05.974Z,15.43
2022-11-26T19:07:34.247Z,27.35
2022-11-26T19:10:02.370Z,44.95
2022-11-26T19:12:30.596Z,58.08
2022-11-26T19:14:58.875Z,45.08
2022-11-26T19:17:27.194Z,47.90
2022-11-26T19:19:55.294Z,49.17
2022-11-26T19:22:24.823Z,49.20
2022-11-26T19:24:52.961Z,51.97
2022-11-26T19:27:21.126Z,46.25
2022-11-26T19:29:49.341Z,44.05
2022-11-26T19:32:17.552Z,48.05
2022-11-26T19:34:45.702Z,54.10
2022-11-26T19:37:13.804Z,58.65
2022-11-26T19:39:43.544Z,58.97
2022-11-26T19:42:11.646Z,64.20
2022-11-26T19:44:40.052Z,61.10
2022-11-26T19:47:08.133Z,61.15
2022-11-26T19:49:36.740Z,61.78
2022-11-26T19:52:05.129Z,60.53
2022-11-26T19:54:33.433Z,59.72
2022-11-26T19:57:02.937Z,61.00
2022-11-26T19:59:31.146Z,58.92
2022-11-26T20:01:59.410Z,54.08
2022-11-26T20:04:29.720Z,55.95
2022-11-26T20:06:58.674Z,52.60
2022-11-26T20:09:26.769Z,58.47
2022-11-26T20:11:54.916Z,59.55
2022-11-26T20:14:24.387Z,70.05
2022-11-26T20:16:55.150Z,66.57
2022-11-26T20:19:27.499Z,64.82
2022-11-26T20:21:55.629Z,70.57
2022-11-26T20:24:23.725Z,72.00
2022-11-26T20:26:51.908Z,74.60
2022-11-26T20:29:20.130Z,75.03
2022-11-26T20:31:50.867Z,73.10
2022-11-26T20:34:19.814Z,77.65
2022-11-26T20:36:48.040Z,75.43
2022-11-26T20:39:17.461Z,73.90
2022-11-26T20:41:45.674Z,73.05
2022-11-26T20:44:14.241Z,71.47
2022-11-26T20:46:42.450Z,70.30
2022-11-26T20:49:12.306Z,78.10
2022-11-26T20:51:40.551Z,72.75
2022-11-26T20:54:08.666Z,72.13
2022-11-26T20:56:36.863Z,68.75
2022-11-26T20:59:04.980Z,69.43
2022-11-26T21:01:33.413Z,67.95
2022-11-26T21:04:01.540Z,66.25
2022-11-26T21:06:31.604Z,58.72
2022-11-26T21:09:00.729Z,54.53
2022-11-26T21:11:28.919Z,54.95
2022-11-26T21:13:58.092Z,60.90
2022-11-26T21:16:26.302Z,57.55
2022-11-26T21:18:55.023Z,61.65
2022-11-26T21:21:23.237Z,59.03
2022-11-26T21:23:52.793Z,59.72
2022-11-26T21:26:22.336Z,63.38
2022-11-26T21:28:51.642Z,69.13
2022-11-26T21:31:19.928Z,67.88
2022-11-26T21:33:48.247Z,70.10
2022-11-26T21:36:17.148Z,74.00
2022-11-26T21:38:48.381Z,82.40
2022-11-26T21:41:19.903Z,72.35
2022-11-26T21:43:48.401Z,70.00
2022-11-26T21:46:17.225Z,74.50
2022-11-26T21:48:45.551Z,70.93
2022-11-26T21:51:15.441Z,71.35
2022-11-26T21:53:43.676Z,69.55
2022-11-26T21:56:13.773Z,70.22
2022-11-26T21:58:43.397Z,72.63
2022-11-26T22:01:12.497Z,68.72
2022-11-26T22:03:40.955Z,70.22
2022-11-26T22:06:09.277Z,70.50
2022-11-26T22:08:37.460Z,68.05
2022-11-26T22:11:09.803Z,68.03
2022-11-26T22:13:37.974Z,65.68
2022-11-26T22:16:08.338Z,64.15
2022-11-26T22:18:37.301Z,64.43
2022-11-26T22:21:05.609Z,62.55
2022-11-26T22:23:33.801Z,62.97
2022-11-26T22:26:01.909Z,65.00
2022-11-26T22:28:30.430Z,63.08
2022-11-26T22:30:58.709Z,62.05
2022-11-26T22:33:28.353Z,60.00
2022-11-26T22:35:56.430Z,57.25
2022-11-26T22:38:25.214Z,59.25
2022-11-26T22:40:53.320Z,59.85
2022-11-26T22:43:21.546Z,53.60
2022-11-26T22:45:49.731Z,58.63
2022-11-26T22:48:17.916Z,60.80
2022-11-26T22:50:52.401Z,56.97
2022-11-26T22:53:20.630Z,53.95
2022-11-26T22:55:52.378Z,54.72
2022-11-26T22:58:20.637Z,52.13
2022-11-26T23:00:49.932Z,52.22
2022-11-26T23:03:18.219Z,51.22
2022-11-26T23:05:46.563Z,49.22
2022-11-26T23:08:16.100Z,50.13
2022-11-26T23:10:44.364Z,50.25
2022-11-26T23:13:13.401Z,52.35
2022-11-26T23:15:44.656Z,48.25
2022-11-26T23:18:13.693Z,49.83
2022-11-26T23:20:41.820Z,50.22
2022-11-26T23:23:09.928Z,48.72
2022-11-26T23:25:40.600Z,52.08
2022-11-26T23:28:08.744Z,54.17
2022-11-26T23:30:36.821Z,56.83
2022-11-26T23:33:05.059Z,56.75
2022-11-26T23:35:33.200Z,60.03
2022-11-26T23:38:01.332Z,58.17
2022-11-26T23:40:29.504Z,60.47
2022-11-26T23:42:58.982Z,60.67
2022-11-26T23:45:27.146Z,59.50
2022-11-26T23:47:55.289Z,60.50
2022-11-26T23:50:23.473Z,62.97
2022-11-26T23:52:51.555Z,53.83
2022-11-26T23:55:19.731Z,54.38
2022-11-26T23:57:47.797Z,51.13
